createdAt,value
2017-10-17T00:05:22.160Z,10.40
2017-10-17T00:07:55.967Z,12.13
2017-10-17T00:10:24.868Z,9.40
2017-10-17T00:12:53.758Z,8.23
2017-10-17T00:15:47.765Z,11.70
2017-10-17T00:18:15.876Z,8.47
2017-10-17T00:20:44.032Z,8.37
2017-10-17T00:23:12.162Z,10.70
2017-10-17T00:25:41.051Z,11.33
2017-10-17T00:28:09.187Z,10.70
2017-10-17T00:30:41.591Z,9.90
2017-10-17T00:33:18.286Z,8.77
2017-10-17T00:39:02.647Z,8.17
2017-10-17T00:41:30.903Z,9.63
2017-10-17T00:43:59.800Z,9.90
2017-10-17T00:46:32.646Z,9.27
2017-10-17T00:49:00.778Z,12.90
2017-10-17T00:51:31.421Z,9.90
2017-10-17T00:54:03.313Z,8.80
2017-10-17T00:56:31.419Z,9.73
2017-10-17T00:59:00.304Z,8.67
2017-10-17T01:01:28.502Z,13.83
2017-10-17T01:03:56.662Z,10.53
2017-10-17T01:06:24.794Z,8.87
2017-10-17T01:08:52.950Z,9.90
2017-10-17T01:11:21.090Z,9.60
2017-10-17T01:13:53.758Z,9.10
2017-10-17T01:16:21.889Z,12.47
2017-10-17T01:18:50.101Z,9.90
2017-10-17T01:21:18.951Z,8.63
2017-10-17T01:23:48.684Z,10.00
2017-10-17T01:26:21.398Z,9.80
2017-10-17T01:29:00.048Z,9.03
2017-10-17T01:31:32.123Z,9.40
2017-10-17T01:34:11.482Z,10.20
2017-10-17T01:36:39.666Z,10.03
2017-10-17T01:39:07.811Z,10.30
2017-10-17T01:41:35.920Z,9.77
2017-10-17T01:47:26.788Z,10.10
2017-10-17T01:49:54.962Z,10.70
2017-10-17T01:52:25.850Z,11.37
2017-10-17T01:54:56.813Z,9.83
2017-10-17T01:57:24.918Z,9.30
2017-10-17T02:00:07.943Z,10.40
2017-10-17T02:02:39.823Z,12.43
2017-10-17T02:05:12.541Z,11.20
2017-10-17T02:07:40.760Z,11.97
2017-10-17T02:10:21.491Z,10.70
2017-10-17T02:12:50.383Z,11.40
2017-10-17T02:15:18.514Z,14.80
2017-10-17T02:17:51.163Z,10.77
2017-10-17T02:20:19.299Z,10.27
2017-10-17T02:22:47.470Z,11.60
2017-10-17T02:25:19.423Z,10.83
2017-10-17T02:27:47.564Z,9.80
2017-10-17T02:30:31.646Z,11.33
2017-10-17T02:33:00.537Z,11.60
2017-10-17T02:35:31.229Z,11.40
2017-10-17T02:38:00.193Z,12.50
2017-10-17T02:40:33.153Z,11.03
2017-10-17T02:43:22.662Z,11.33
2017-10-17T02:45:50.811Z,10.53
2017-10-17T02:48:30.642Z,13.70
2017-10-17T02:50:58.746Z,11.63
2017-10-17T02:53:26.869Z,10.40
2017-10-17T02:55:54.990Z,13.20
2017-10-17T02:58:23.933Z,10.57
2017-10-17T03:01:16.906Z,12.80
2017-10-17T03:03:46.550Z,11.40
2017-10-17T03:06:14.703Z,10.33
2017-10-17T03:08:42.828Z,12.13
2017-10-17T03:11:23.891Z,12.00
2017-10-17T03:16:49.666Z,10.93
2017-10-17T03:19:18.582Z,11.37
2017-10-17T03:21:49.113Z,11.53
2017-10-17T03:24:29.043Z,11.03
2017-10-17T03:26:57.217Z,11.73
2017-10-17T03:29:25.367Z,11.63
2017-10-17T03:31:53.562Z,11.80
2017-10-17T03:34:21.787Z,11.23
2017-10-17T03:39:53.240Z,14.97
2017-10-17T03:42:21.414Z,11.57
2017-10-17T03:44:54.958Z,15.70
2017-10-17T03:47:27.625Z,11.50
2017-10-17T03:49:57.231Z,11.63
2017-10-17T03:55:27.774Z,12.50
2017-10-17T03:57:57.817Z,13.87
2017-10-17T04:00:26.040Z,14.80
2017-10-17T04:03:09.878Z,11.37
2017-10-17T04:05:39.995Z,13.60
2017-10-17T04:11:19.369Z,12.60
2017-10-17T04:13:52.360Z,17.97
2017-10-17T04:16:22.412Z,14.27
2017-10-17T04:22:24.503Z,14.10
2017-10-17T04:25:10.920Z,14.07
2017-10-17T04:31:49.152Z,14.83
2017-10-17T04:37:42.560Z,15.17
2017-10-17T04:40:12.222Z,16.37
2017-10-17T04:45:48.682Z,16.03
2017-10-17T04:48:50.140Z,17.67
2017-10-17T04:51:24.842Z,16.73
2017-10-17T04:56:59.476Z,17.73
2017-10-17T04:59:36.215Z,19.20
2017-10-17T05:05:11.724Z,19.40
2017-10-17T05:07:45.031Z,17.37
2017-10-17T05:10:29.057Z,19.30
2017-10-17T05:13:13.732Z,16.87
2017-10-17T05:18:51.696Z,17.53
2017-10-17T05:21:20.115Z,17.90
2017-10-17T05:24:00.929Z,17.97
2017-10-17T05:26:30.035Z,18.33
2017-10-17T05:29:02.782Z,17.83
2017-10-17T05:31:31.915Z,20.07
2017-10-17T05:34:26.742Z,21.60
2017-10-17T05:37:07.595Z,18.47
2017-10-17T05:39:35.755Z,17.70
2017-10-17T05:42:04.725Z,17.27
2017-10-17T05:44:36.783Z,17.90
2017-10-17T05:47:08.500Z,17.40
2017-10-17T05:49:42.026Z,14.70
2017-10-17T05:52:10.739Z,18.10
2017-10-17T05:54:38.890Z,20.57
2017-10-17T05:57:08.047Z,17.00
2017-10-17T05:59:36.226Z,19.47
2017-10-17T06:02:04.373Z,18.33
2017-10-17T06:04:32.498Z,19.13
2017-10-17T06:07:01.404Z,18.67
2017-10-17T06:09:33.186Z,19.53
2017-10-17T06:12:01.311Z,20.57
2017-10-17T06:14:29.523Z,16.50
2017-10-17T06:16:57.630Z,18.67
2017-10-17T06:19:25.826Z,21.43
2017-10-17T06:21:55.935Z,15.47
2017-10-17T06:24:24.118Z,17.10
2017-10-17T06:26:52.266Z,13.03
2017-10-17T06:29:20.612Z,17.73
2017-10-17T06:31:48.737Z,12.77
2017-10-17T06:34:16.866Z,14.30
2017-10-17T06:36:45.120Z,11.60
2017-10-17T06:39:13.776Z,13.90
2017-10-17T06:41:44.671Z,10.87
2017-10-17T06:44:12.814Z,13.50
2017-10-17T06:46:43.154Z,9.40
2017-10-17T06:49:12.064Z,12.53
2017-10-17T06:51:41.218Z,13.80
2017-10-17T06:54:11.364Z,12.77
2017-10-17T06:56:43.275Z,16.53
2017-10-17T06:59:11.426Z,18.07
2017-10-17T07:01:39.561Z,13.90
2017-10-17T07:04:09.061Z,17.70
2017-10-17T07:06:36.678Z,15.43
2017-10-17T07:09:11.878Z,17.80
2017-10-17T07:11:40.083Z,15.93
2017-10-17T07:14:09.217Z,18.50
2017-10-17T07:16:37.936Z,19.17
2017-10-17T07:19:11.370Z,16.10
2017-10-17T07:21:39.460Z,17.03
2017-10-17T07:24:10.210Z,15.97
2017-10-17T07:26:39.108Z,14.67
2017-10-17T07:29:07.628Z,13.67
2017-10-17T07:31:35.844Z,14.03
2017-10-17T07:34:04.020Z,12.27
2017-10-17T07:36:32.123Z,16.93
2017-10-17T07:39:04.319Z,12.43
2017-10-17T07:41:32.507Z,10.50
2017-10-17T07:44:04.543Z,13.13
2017-10-17T07:46:32.794Z,12.23
2017-10-17T07:49:02.921Z,11.70
2017-10-17T07:51:31.807Z,10.27
2017-10-17T07:53:59.943Z,11.30
2017-10-17T07:56:29.078Z,15.70
2017-10-17T07:58:57.270Z,11.50
2017-10-17T08:01:25.647Z,13.97
2017-10-17T08:03:53.820Z,12.10
2017-10-17T08:06:22.128Z,12.90
2017-10-17T08:08:50.258Z,10.87
2017-10-17T08:11:25.124Z,12.10
2017-10-17T08:13:53.345Z,15.23
2017-10-17T08:16:21.489Z,15.47
2017-10-17T08:18:57.791Z,19.13
2017-10-17T08:21:26.003Z,14.87
2017-10-17T08:23:55.027Z,10.70
2017-10-17T08:26:23.172Z,15.33
2017-10-17T08:28:51.350Z,15.23
2017-10-17T08:31:19.520Z,16.33
2017-10-17T08:33:47.933Z,10.23
2017-10-17T08:36:16.085Z,13.23
2017-10-17T08:38:44.925Z,14.70
2017-10-17T08:41:13.163Z,14.30
2017-10-17T08:43:41.390Z,11.60
2017-10-17T08:46:09.745Z,13.20
2017-10-17T08:48:38.660Z,20.20
2017-10-17T08:51:12.621Z,15.60
2017-10-17T08:53:40.809Z,14.97
2017-10-17T08:56:09.886Z,15.23
2017-10-17T08:58:38.209Z,11.87
2017-10-17T09:01:06.855Z,10.33
2017-10-17T09:06:13.210Z,14.57
2017-10-17T09:08:46.667Z,11.87
2017-10-17T09:11:14.770Z,17.07
2017-10-17T09:13:42.915Z,10.60
2017-10-17T09:16:11.050Z,13.87
2017-10-17T09:18:39.387Z,14.97
2017-10-17T09:21:08.376Z,13.30
2017-10-17T09:23:44.153Z,15.07
2017-10-17T09:26:12.302Z,13.63
2017-10-17T09:28:40.532Z,13.93
2017-10-17T09:31:10.256Z,14.20
2017-10-17T09:33:38.498Z,14.37
2017-10-17T09:36:06.741Z,14.03
2017-10-17T09:38:44.967Z,10.03
2017-10-17T09:41:13.116Z,11.67
2017-10-17T09:43:41.213Z,10.00
2017-10-17T09:46:09.352Z,12.47
2017-10-17T09:48:37.600Z,13.70
2017-10-17T09:51:09.154Z,12.80
2017-10-17T09:53:37.312Z,14.63
2017-10-17T09:56:05.562Z,10.27
2017-10-17T09:58:33.878Z,10.10
2017-10-17T10:01:02.735Z,15.00
2017-10-17T10:03:31.629Z,11.43
2017-10-17T10:06:00.519Z,7.63
2017-10-17T10:08:28.773Z,14.27
2017-10-17T10:10:57.794Z,18.97
2017-10-17T10:13:26.262Z,15.47
2017-10-17T10:15:55.451Z,14.47
2017-10-17T10:18:23.709Z,14.23
2017-10-17T10:20:51.861Z,15.00
2017-10-17T10:23:24.478Z,12.43
2017-10-17T10:25:53.043Z,11.60
2017-10-17T10:28:24.806Z,12.93
2017-10-17T10:30:53.190Z,17.07
2017-10-17T10:33:21.636Z,16.30
2017-10-17T10:35:51.437Z,12.33
2017-10-17T10:38:19.643Z,13.47
2017-10-17T10:40:50.320Z,14.33
2017-10-17T10:43:20.120Z,11.97
2017-10-17T10:45:56.525Z,9.77
2017-10-17T10:48:29.822Z,11.20
2017-10-17T10:51:20.019Z,13.33
2017-10-17T10:53:50.376Z,11.37
2017-10-17T10:56:29.870Z,10.73
2017-10-17T10:58:57.989Z,10.97
2017-10-17T11:01:27.127Z,13.23
2017-10-17T11:03:56.027Z,16.57
2017-10-17T11:06:27.370Z,12.37
2017-10-17T11:08:55.958Z,12.37
2017-10-17T11:13:57.651Z,12.63
2017-10-17T11:16:26.695Z,11.70
2017-10-17T11:18:54.860Z,12.87
2017-10-17T11:24:11.188Z,11.57
2017-10-17T11:29:31.096Z,13.30
2017-10-17T11:31:59.402Z,18.17
2017-10-17T11:34:30.207Z,13.17
2017-10-17T11:37:02.510Z,8.80
2017-10-17T11:39:30.834Z,14.13
2017-10-17T11:42:11.827Z,17.37
2017-10-17T11:44:39.943Z,12.60
2017-10-17T11:47:16.241Z,10.37
2017-10-17T11:49:44.454Z,13.47
2017-10-17T11:52:15.956Z,13.87
2017-10-17T11:54:44.554Z,12.53
2017-10-17T11:57:12.899Z,12.23
2017-10-17T11:59:41.175Z,14.27
2017-10-17T12:02:10.308Z,14.80
2017-10-17T12:04:39.391Z,9.57
2017-10-17T12:07:08.550Z,9.20
2017-10-17T12:09:37.020Z,10.83
2017-10-17T12:12:05.151Z,9.13
2017-10-17T12:14:33.439Z,10.13
2017-10-17T12:17:01.926Z,10.93
2017-10-17T12:19:30.095Z,8.13
2017-10-17T12:21:58.224Z,10.93
2017-10-17T12:24:26.396Z,13.23
2017-10-17T12:26:54.828Z,9.60
2017-10-17T12:29:24.184Z,11.13
2017-10-17T12:31:53.193Z,14.13
2017-10-17T12:34:21.384Z,10.87
2017-10-17T12:36:49.619Z,11.23
2017-10-17T12:39:19.789Z,12.60
2017-10-17T12:41:48.910Z,9.33
2017-10-17T12:44:17.058Z,11.20
2017-10-17T12:46:45.216Z,18.70
2017-10-17T12:49:13.381Z,10.20
2017-10-17T12:51:41.590Z,7.90
2017-10-17T12:54:09.773Z,13.70
2017-10-17T12:56:38.317Z,10.10
2017-10-17T12:59:07.113Z,11.90
2017-10-17T13:01:35.275Z,10.43
2017-10-17T13:04:04.236Z,9.53
2017-10-17T13:06:37.716Z,8.83
2017-10-17T13:09:06.787Z,12.43
2017-10-17T13:11:35.134Z,11.80
2017-10-17T13:14:03.407Z,13.17
2017-10-17T13:16:32.343Z,10.33
2017-10-17T13:19:00.556Z,10.50
2017-10-17T13:21:29.689Z,10.10
2017-10-17T13:23:57.859Z,9.53
2017-10-17T13:26:26.768Z,15.47
2017-10-17T13:28:54.997Z,17.00
2017-10-17T13:31:24.036Z,12.47
2017-10-17T13:33:53.248Z,12.63
2017-10-17T13:36:29.794Z,10.63
2017-10-17T13:39:03.115Z,13.83
2017-10-17T13:41:53.140Z,10.83
2017-10-17T13:44:21.583Z,13.17
2017-10-17T13:46:50.721Z,10.43
2017-10-17T13:52:12.780Z,11.87
2017-10-17T13:54:40.937Z,11.87
2017-10-17T13:57:10.035Z,15.03
2017-10-17T13:59:38.190Z,12.73
2017-10-17T14:02:06.410Z,9.20
2017-10-17T14:04:34.618Z,9.60
2017-10-17T14:07:02.775Z,14.87
2017-10-17T14:09:31.021Z,8.47
2017-10-17T14:11:59.198Z,12.73
2017-10-17T14:14:28.198Z,11.10
2017-10-17T14:17:02.272Z,7.00
2017-10-17T14:19:33.843Z,15.47
2017-10-17T14:22:02.050Z,13.07
2017-10-17T14:24:31.189Z,13.87
2017-10-17T14:26:59.433Z,8.40
2017-10-17T14:29:28.330Z,13.93
2017-10-17T14:31:56.507Z,12.30
2017-10-17T14:34:24.656Z,14.20
2017-10-17T14:36:53.043Z,14.17
2017-10-17T14:39:21.214Z,15.97
2017-10-17T14:41:49.356Z,11.97
2017-10-17T14:44:17.552Z,11.43
2017-10-17T14:46:46.541Z,8.73
2017-10-17T14:49:14.881Z,9.57
2017-10-17T14:51:43.144Z,17.07
2017-10-17T14:54:12.453Z,9.77
2017-10-17T14:56:40.965Z,8.87
2017-10-17T14:59:12.848Z,10.80
2017-10-17T15:01:41.092Z,12.70
2017-10-17T15:04:09.299Z,13.53
2017-10-17T15:06:38.489Z,14.97
2017-10-17T15:09:06.611Z,12.03
2017-10-17T15:11:34.855Z,12.17
2017-10-17T15:14:03.201Z,15.00
2017-10-17T15:16:31.465Z,12.73
2017-10-17T15:19:00.707Z,11.23
2017-10-17T15:21:28.915Z,12.37
2017-10-17T15:23:57.154Z,11.20
2017-10-17T15:26:25.495Z,13.30
2017-10-17T15:28:53.667Z,12.70
2017-10-17T15:31:22.884Z,13.17
2017-10-17T15:33:52.565Z,11.40
2017-10-17T15:36:20.677Z,11.90
2017-10-17T15:38:49.164Z,12.07
2017-10-17T15:44:21.667Z,12.77
2017-10-17T15:46:49.815Z,11.77
2017-10-17T15:49:19.669Z,7.90
2017-10-17T15:51:47.802Z,9.57
2017-10-17T15:54:15.971Z,24.97
2017-10-17T15:56:55.746Z,14.00
2017-10-17T15:59:23.898Z,12.37
2017-10-17T16:01:52.132Z,9.57
2017-10-17T16:04:20.336Z,10.00
2017-10-17T16:06:48.672Z,10.07
2017-10-17T16:09:16.869Z,11.00
2017-10-17T16:11:45.699Z,12.27
2017-10-17T16:14:13.888Z,14.53
2017-10-17T16:16:42.082Z,15.53
2017-10-17T16:19:10.276Z,14.50
2017-10-17T16:21:38.601Z,14.60
2017-10-17T16:24:06.794Z,10.00
2017-10-17T16:26:35.725Z,9.00
2017-10-17T16:29:03.914Z,10.10
2017-10-17T16:31:32.051Z,10.30
2017-10-17T16:34:00.298Z,13.90
2017-10-17T16:36:31.618Z,9.93
2017-10-17T16:38:59.759Z,11.27
2017-10-17T16:41:27.964Z,17.37
2017-10-17T16:43:56.159Z,8.90
2017-10-17T16:46:24.282Z,18.80
2017-10-17T16:48:52.695Z,14.07
2017-10-17T16:51:26.320Z,12.40
2017-10-17T16:53:54.451Z,13.47
2017-10-17T16:56:22.899Z,10.47
2017-10-17T16:58:51.776Z,19.00
2017-10-17T17:01:24.098Z,7.50
2017-10-17T17:03:52.262Z,14.70
2017-10-17T17:06:20.378Z,8.83
2017-10-17T17:08:48.948Z,13.33
2017-10-17T17:11:17.107Z,13.90
2017-10-17T17:13:45.352Z,12.30
2017-10-17T17:16:13.794Z,16.80
2017-10-17T17:18:47.319Z,17.90
2017-10-17T17:21:15.438Z,8.77
2017-10-17T17:23:50.626Z,11.43
2017-10-17T17:26:18.890Z,16.27
2017-10-17T17:28:54.614Z,9.17
2017-10-17T17:31:33.375Z,11.10
2017-10-17T17:34:02.098Z,12.47
2017-10-17T17:36:30.229Z,11.10
2017-10-17T17:38:58.358Z,15.57
2017-10-17T17:41:26.501Z,13.00
2017-10-17T17:43:54.999Z,11.73
2017-10-17T17:46:23.995Z,16.37
2017-10-17T17:49:03.814Z,18.47
2017-10-17T17:51:39.449Z,11.47
2017-10-17T17:54:07.638Z,12.13
2017-10-17T17:56:37.040Z,14.20
2017-10-17T17:59:06.552Z,12.40
2017-10-17T18:01:37.749Z,17.90
2017-10-17T18:04:05.865Z,16.80
2017-10-17T18:06:34.002Z,15.63
2017-10-17T18:09:02.192Z,15.70
2017-10-17T18:11:30.264Z,13.83
2017-10-17T18:13:59.264Z,11.80
2017-10-17T18:16:28.144Z,11.70
2017-10-17T18:18:56.357Z,15.27
2017-10-17T18:21:50.955Z,16.33
2017-10-17T18:24:20.531Z,20.60
2017-10-17T18:26:49.500Z,15.00
2017-10-17T18:29:18.020Z,19.43
2017-10-17T18:31:48.219Z,14.63
2017-10-17T18:34:16.601Z,13.60
2017-10-17T18:36:45.585Z,18.10
2017-10-17T18:39:13.703Z,16.37
2017-10-17T18:41:41.961Z,14.80
2017-10-17T18:44:10.194Z,13.90
2017-10-17T18:46:44.849Z,17.00
2017-10-17T18:49:13.087Z,21.47
2017-10-17T18:51:41.383Z,16.27
2017-10-17T18:54:09.582Z,17.93
2017-10-17T18:56:38.484Z,15.30
2017-10-17T18:59:06.635Z,11.07
2017-10-17T19:01:34.825Z,16.60
2017-10-17T19:04:02.963Z,19.80
2017-10-17T19:06:31.105Z,16.47
2017-10-17T19:09:00.103Z,12.67
2017-10-17T19:11:28.277Z,16.27
2017-10-17T19:14:13.166Z,14.63
2017-10-17T19:16:41.563Z,17.30
2017-10-17T19:19:11.677Z,15.87
2017-10-17T19:21:39.816Z,18.20
2017-10-17T19:24:08.816Z,13.53
2017-10-17T19:26:37.072Z,18.93
2017-10-17T19:29:05.988Z,17.33
2017-10-17T19:31:38.210Z,18.67
2017-10-17T19:34:06.498Z,17.23
2017-10-17T19:36:34.675Z,23.10
2017-10-17T19:39:14.157Z,16.70
2017-10-17T19:41:54.669Z,18.60
2017-10-17T19:44:23.050Z,19.23
2017-10-17T19:46:51.248Z,18.70
2017-10-17T19:49:21.348Z,32.50
2017-10-17T19:51:49.913Z,47.90
2017-10-17T19:54:18.423Z,66.00
2017-10-17T19:56:47.545Z,36.50
2017-10-17T19:59:15.840Z,22.87
2017-10-17T20:01:44.039Z,15.40
2017-10-17T20:04:12.359Z,20.50
2017-10-17T20:06:40.703Z,14.50
2017-10-17T20:09:08.897Z,17.03
2017-10-17T20:11:37.226Z,18.20
2017-10-17T20:14:25.457Z,18.27
2017-10-17T20:16:54.199Z,16.23
2017-10-17T20:19:22.492Z,10.20
2017-10-17T20:21:50.631Z,19.63
2017-10-17T20:24:18.872Z,18.53
2017-10-17T20:26:48.992Z,18.57
2017-10-17T20:29:17.382Z,22.57
2017-10-17T20:31:45.585Z,21.93
2017-10-17T20:34:13.862Z,15.30
2017-10-17T20:36:41.996Z,20.40
2017-10-17T20:39:14.546Z,19.37
2017-10-17T20:41:42.908Z,21.33
2017-10-17T20:44:12.098Z,16.73
2017-10-17T20:46:40.280Z,20.07
2017-10-17T20:49:08.439Z,12.13
2017-10-17T20:51:38.514Z,15.90
2017-10-17T20:54:06.676Z,14.73
2017-10-17T20:56:34.797Z,18.73
2017-10-17T20:59:02.981Z,20.30
2017-10-17T21:01:37.134Z,24.33
2017-10-17T21:04:08.924Z,23.33
2017-10-17T21:06:37.139Z,14.40
2017-10-17T21:09:06.242Z,22.10
2017-10-17T21:11:34.567Z,16.30
2017-10-17T21:14:02.749Z,23.23
2017-10-17T21:16:30.899Z,23.67
2017-10-17T21:18:59.180Z,15.40
2017-10-17T21:21:27.324Z,22.23
2017-10-17T21:23:56.140Z,20.50
2017-10-17T21:26:24.244Z,16.83
2017-10-17T21:28:52.522Z,24.77
2017-10-17T21:31:21.986Z,20.30
2017-10-17T21:33:50.167Z,21.90
2017-10-17T21:36:18.372Z,19.30
2017-10-17T21:38:46.502Z,16.03
2017-10-17T21:41:14.686Z,22.57
2017-10-17T21:43:43.708Z,18.80
2017-10-17T21:46:11.830Z,16.90
2017-10-17T21:48:40.012Z,19.73
2017-10-17T21:51:18.941Z,17.73
2017-10-17T21:53:47.084Z,22.27
2017-10-17T21:56:15.206Z,14.67
2017-10-17T21:58:43.331Z,21.80
2017-10-17T22:01:16.380Z,20.30
2017-10-17T22:03:44.552Z,18.93
2017-10-17T22:06:13.458Z,17.43
2017-10-17T22:08:49.002Z,12.50
2017-10-17T22:11:17.182Z,18.60
2017-10-17T22:16:41.224Z,19.10
2017-10-17T22:19:09.339Z,21.93
2017-10-17T22:21:37.496Z,22.30
2017-10-17T22:24:05.644Z,22.00
2017-10-17T22:26:33.834Z,13.80
2017-10-17T22:29:08.955Z,19.43
2017-10-17T22:31:37.085Z,18.03
2017-10-17T22:34:06.023Z,13.93
2017-10-17T22:36:34.156Z,19.10
2017-10-17T22:39:02.321Z,17.53
2017-10-17T22:41:30.447Z,17.50
2017-10-17T22:43:58.555Z,14.07
2017-10-17T22:46:26.770Z,21.67
2017-10-17T22:48:54.946Z,16.33
2017-10-17T22:51:23.106Z,20.30
2017-10-17T22:53:52.244Z,19.20
2017-10-17T22:56:20.436Z,20.17
2017-10-17T22:58:48.571Z,18.37
2017-10-17T23:01:29.121Z,15.70
2017-10-17T23:03:57.347Z,19.23
2017-10-17T23:06:25.471Z,21.40
2017-10-17T23:08:53.626Z,12.90
2017-10-17T23:11:22.602Z,15.90
2017-10-17T23:13:52.594Z,18.80
2017-10-17T23:16:20.729Z,17.30
2017-10-17T23:19:00.547Z,20.13
2017-10-17T23:21:33.459Z,19.77
2017-10-17T23:24:01.631Z,25.37
2017-10-17T23:26:29.827Z,15.87
2017-10-17T23:28:58.022Z,21.33
2017-10-17T23:31:26.143Z,22.17
2017-10-17T23:33:54.326Z,17.27
2017-10-17T23:36:22.460Z,20.50
2017-10-17T23:38:51.312Z,24.07
2017-10-17T23:41:19.454Z,17.70
2017-10-17T23:43:47.560Z,19.67
2017-10-17T23:46:15.749Z,15.60
2017-10-17T23:48:43.864Z,18.13
2017-10-17T23:51:12.839Z,19.73
2017-10-17T23:53:41.037Z,14.73
2017-10-17T23:56:09.275Z,17.47
2017-10-17T23:58:41.523Z,26.10
